Time;durP1;ratioP1;P1;durP2;ratioP2;P2;SDS_P1;SDS_P2;PMS_P1;PMS_P2;Temp;Humidity;BMP_temperature;BMP_pressure;BME280_temperature;BME280_humidity;BME280_pressure;Samples;Min_cycle;Max_cycle;Signal;HPM_P1;HPM_P2
2023/08/01 00:02:18;;;;;;;4.55;1.60;;;;;;;19.57;52.22;99217.31;7791413;32;40019;-77
2023/08/01 00:06:35;;;;;;;6.15;1.60;;;;;;;19.38;53.30;99212.38;7773891;32;39956;-77
2023/08/01 00:10:51;;;;;;;3.97;1.70;;;;;;;19.33;53.66;99201.53;7764931;32;38893;-76
2023/08/01 00:15:08;;;;;;;5.22;1.80;;;;;;;19.32;53.63;99217.31;7781595;32;36849;-77
2023/08/01 00:19:24;;;;;;;5.57;1.98;;;;;;;19.19;54.42;99214.91;7791892;32;40898;-77
2023/08/01 00:23:41;;;;;;;4.05;1.80;;;;;;;19.18;54.38;99214.09;7784487;32;39915;-77
2023/08/01 00:27:57;;;;;;;5.47;1.95;;;;;;;19.00;54.96;99205.19;7769792;32;38778;-77
2023/08/01 00:32:14;;;;;;;2.08;1.58;;;;;;;19.17;54.35;99200.63;7764913;32;37192;-77
2023/08/01 00:36:30;;;;;;;5.28;1.65;;;;;;;19.28;53.23;99197.06;7789658;32;39356;-77
2023/08/01 00:40:47;;;;;;;4.97;1.85;;;;;;;19.00;53.74;99183.09;7791550;32;40028;-77
2023/08/01 00:45:04;;;;;;;4.47;1.62;;;;;;;19.01;53.53;99173.66;7778439;32;37901;-77
2023/08/01 00:49:20;;;;;;;2.47;1.80;;;;;;;18.94;53.33;99174.22;7791404;32;37894;-77
2023/08/01 00:53:36;;;;;;;3.47;1.75;;;;;;;18.86;55.04;99179.84;7784805;32;40054;-77
2023/08/01 00:57:53;;;;;;;5.22;2.00;;;;;;;18.85;54.59;99159.72;7763995;32;40088;-77
2023/08/01 01:02:11;;;;;;;4.35;1.80;;;;;;;18.81;54.76;99150.47;7763800;32;37585;-77
2023/08/01 01:06:56;;;;;;;3.85;1.83;;;;;;;18.79;54.59;99146.44;7762392;32;36193;-76
2023/08/01 01:11:12;;;;;;;4.97;2.03;;;;;;;18.94;54.14;99154.09;7764192;32;39307;-77
2023/08/01 01:15:29;;;;;;;5.05;1.90;;;;;;;18.66;55.01;99151.94;7784611;32;40746;-77
2023/08/01 01:19:45;;;;;;;4.25;1.62;;;;;;;18.76;54.73;99145.16;7792786;32;37900;-77
2023/08/01 01:24:03;;;;;;;3.80;2.00;;;;;;;18.97;54.24;99136.81;7785506;32;36771;-77
2023/08/01 01:28:20;;;;;;;4.40;1.92;;;;;;;18.84;54.31;99138.78;7767054;32;38218;-77
2023/08/01 01:32:36;;;;;;;5.30;1.87;;;;;;;18.66;54.68;99135.38;7753224;32;40037;-77
2023/08/01 01:36:53;;;;;;;3.62;1.75;;;;;;;18.62;55.36;99142.72;7778794;32;38059;-77
2023/08/01 01:41:11;;;;;;;2.37;1.70;;;;;;;18.75;54.73;99127.81;7793414;32;38352;-76
2023/08/01 01:45:27;;;;;;;4.20;2.10;;;;;;;18.68;55.07;99124.81;7767785;32;39387;-76
2023/08/01 01:49:44;;;;;;;2.35;1.58;;;;;;;18.79;54.70;99110.56;7766538;32;39921;-77
2023/08/01 01:54:03;;;;;;;5.22;1.80;;;;;;;18.84;54.70;99107.59;7773799;32;37970;-77
2023/08/01 01:58:20;;;;;;;4.37;1.77;;;;;;;18.73;55.25;99108.00;7793676;32;36775;-77
2023/08/01 02:02:36;;;;;;;5.00;2.05;;;;;;;18.79;55.38;99113.31;7780064;32;39343;-77
2023/08/01 02:06:54;;;;;;;4.37;1.80;;;;;;;18.74;55.68;99106.84;7791814;32;39931;-77
2023/08/01 02:11:11;;;;;;;2.60;1.67;;;;;;;18.65;56.29;99105.34;7793704;32;38553;-77
2023/08/01 02:15:27;;;;;;;3.53;1.60;;;;;;;18.51;56.30;99105.69;7782161;32;37796;-77
2023/08/01 02:19:43;;;;;;;3.55;2.00;;;;;;;18.61;56.23;99102.47;7793523;32;39060;-76
2023/08/01 02:24:00;;;;;;;6.28;1.95;;;;;;;18.58;56.52;99092.13;7785935;32;39957;-77
2023/08/01 02:28:16;;;;;;;5.12;1.80;;;;;;;18.72;56.51;99087.06;7766200;32;37983;-77
2023/08/01 02:32:32;;;;;;;3.83;1.92;;;;;;;18.75;57.26;99083.62;7766069;32;38002;-77
2023/08/01 02:36:49;;;;;;;5.12;2.00;;;;;;;18.77;57.70;99081.31;7790605;32;40940;-77
2023/08/01 02:41:05;;;;;;;2.58;1.70;;;;;;;18.73;58.51;99085.09;7793180;32;40549;-77
2023/08/01 02:45:22;;;;;;;5.93;2.00;;;;;;;18.81;58.01;99083.41;7777801;32;37899;-77
2023/08/01 02:49:38;;;;;;;6.15;2.03;;;;;;;18.99;57.61;99068.25;7765959;32;37887;-77
2023/08/01 02:53:54;;;;;;;4.60;2.10;;;;;;;18.75;58.50;99080.06;7771147;32;39260;-77
2023/08/01 02:58:11;;;;;;;5.37;2.05;;;;;;;18.85;58.21;99081.59;7779524;32;39962;-77
2023/08/01 03:02:31;;;;;;;4.20;1.92;;;;;;;18.92;57.90;99081.81;7792653;32;37957;-77
2023/08/01 03:06:47;;;;;;;2.67;1.77;;;;;;;18.91;58.18;99069.97;7769049;32;37922;-77
2023/08/01 03:11:04;;;;;;;5.25;2.03;;;;;;;18.72;58.83;99076.03;7765681;32;39115;-77
2023/08/01 03:15:21;;;;;;;3.92;2.30;;;;;;;18.87;58.34;99065.50;7775796;32;39918;-77
2023/08/01 03:19:37;;;;;;;9.48;2.00;;;;;;;18.69;59.03;99067.62;7765498;32;37915;-77
2023/08/01 03:23:53;;;;;;;3.70;2.10;;;;;;;18.95;58.43;99065.38;7770185;32;36877;-77
2023/08/01 03:28:10;;;;;;;3.90;2.03;;;;;;;18.90;58.56;99056.50;7792715;32;39456;-77
2023/08/01 03:32:26;;;;;;;5.07;2.08;;;;;;;18.76;59.57;99060.41;7792586;32;39920;-77
2023/08/01 03:36:43;;;;;;;5.87;1.85;;;;;;;18.89;59.38;99054.91;7768264;32;37961;-77
2023/08/01 03:40:59;;;;;;;5.22;2.30;;;;;;;18.87;60.00;99052.47;7765522;32;38713;-76
2023/08/01 03:45:15;;;;;;;5.60;1.85;;;;;;;18.83;60.66;99061.78;7761845;32;38998;-77
2023/08/01 03:49:32;;;;;;;5.40;2.30;;;;;;;18.87;60.91;99063.53;7771556;32;39924;-77
2023/08/01 03:53:48;;;;;;;3.17;2.10;;;;;;;19.09;60.31;99051.22;7788268;32;38775;-76
2023/08/01 03:58:15;;;;;;;5.05;2.22;;;;;;;19.03;60.82;99058.13;7765263;32;37349;-77
2023/08/01 04:02:31;;;;;;;5.10;2.33;;;;;;;19.11;60.58;99059.94;7765123;32;39874;-85
2023/08/01 04:06:47;;;;;;;4.97;2.30;;;;;;;19.20;60.28;99056.28;7787392;32;40545;-68
2023/08/01 04:11:04;;;;;;;6.80;2.20;;;;;;;19.38;60.43;99057.59;7792042;32;37975;-68
2023/08/01 04:15:20;;;;;;;3.75;2.22;;;;;;;19.62;59.76;99047.63;7775051;32;37956;-67
2023/08/01 04:19:36;;;;;;;4.28;2.03;;;;;;;19.74;58.96;99049.56;7786574;32;40036;-74
2023/08/01 04:23:53;;;;;;;6.45;2.00;;;;;;;19.89;58.57;99046.09;7788015;32;39851;-76
2023/08/01 04:28:09;;;;;;;4.00;2.37;;;;;;;19.76;58.65;99053.59;7764689;32;37815;-76
2023/08/01 04:32:26;;;;;;;7.07;2.50;;;;;;;19.69;58.61;99042.31;7785828;32;37080;-76
2023/08/01 04:36:42;;;;;;;4.05;2.30;;;;;;;19.64;58.82;99035.06;7770024;32;39430;-76
2023/08/01 04:40:58;;;;;;;6.15;2.28;;;;;;;19.59;59.10;99048.34;7764442;32;39921;-73
2023/08/01 04:45:15;;;;;;;4.70;2.10;;;;;;;19.77;59.08;99051.66;7769376;32;37840;-69
2023/08/01 04:49:31;;;;;;;4.78;2.25;;;;;;;19.86;59.11;99052.31;7764494;32;37866;-69
2023/08/01 04:53:47;;;;;;;5.28;2.30;;;;;;;19.71;59.72;99042.75;7766350;32;39006;-68
2023/08/01 04:58:04;;;;;;;4.78;2.00;;;;;;;19.68;59.91;99043.50;7781744;32;40792;-78
2023/08/01 05:02:20;;;;;;;5.10;2.25;;;;;;;19.81;59.42;99050.59;7782135;32;37751;-67
2023/08/01 05:06:36;;;;;;;6.82;2.25;;;;;;;19.65;59.90;99042.22;7787559;32;37532;-77
2023/08/01 05:10:53;;;;;;;5.07;2.20;;;;;;;19.52;60.38;99044.22;7790970;32;40186;-77
2023/08/01 05:15:09;;;;;;;4.47;2.30;;;;;;;19.65;59.92;99039.44;7763660;32;41157;-76
2023/08/01 05:19:26;;;;;;;3.95;2.20;;;;;;;19.57;60.50;99042.34;7776683;32;38426;-77
2023/08/01 05:23:42;;;;;;;7.07;2.37;;;;;;;19.57;60.61;99043.16;7790560;32;38096;-77
2023/08/01 05:27:58;;;;;;;4.65;2.45;;;;;;;19.56;61.00;99043.50;7776536;32;39475;-77
2023/08/01 05:32:15;;;;;;;4.43;2.42;;;;;;;19.68;60.93;99047.06;7789940;32;40853;-76
2023/08/01 05:36:31;;;;;;;6.32;2.40;;;;;;;19.36;62.85;99056.34;7773024;32;37608;-77
2023/08/01 05:40:48;;;;;;;9.18;2.55;;;;;;;19.38;63.03;99065.09;7778852;32;37679;-75
2023/08/01 05:45:04;;;;;;;7.37;2.08;;;;;;;19.76;61.69;99053.59;7769769;32;40159;-75
2023/08/01 05:49:21;;;;;;;6.37;2.30;;;;;;;19.76;61.62;99047.28;7762870;32;40718;-76
2023/08/01 05:53:37;;;;;;;5.35;2.53;;;;;;;19.92;61.00;99044.56;7788781;32;38701;-77
2023/08/01 05:57:53;;;;;;;6.78;2.25;;;;;;;19.95;60.88;99039.13;7790673;32;36783;-77
2023/08/01 06:02:10;;;;;;;10.98;2.80;;;;;;;19.62;62.28;99047.63;7793325;32;39363;-77
2023/08/01 06:06:26;;;;;;;5.50;2.50;;;;;;;19.79;61.31;99049.34;7793867;32;39998;-77
2023/08/01 06:10:43;;;;;;;6.22;2.75;;;;;;;19.88;60.94;99050.00;7781472;32;38543;-77
2023/08/01 06:14:59;;;;;;;5.50;2.20;;;;;;;19.95;60.87;99052.16;7789264;32;37237;-78
2023/08/01 06:19:15;;;;;;;5.57;2.40;;;;;;;20.05;60.25;99038.63;7793531;32;39011;-77
2023/08/01 06:23:32;;;;;;;4.97;2.60;;;;;;;20.05;59.43;99041.37;7793127;32;39948;-77
2023/08/01 06:27:48;;;;;;;5.87;2.50;;;;;;;20.06;59.60;99025.59;7793290;32;38756;-77
2023/08/01 06:32:08;;;;;;;5.47;2.47;;;;;;;20.12;59.15;99037.22;7793411;32;37059;-77
2023/08/01 06:36:24;;;;;;;4.90;2.50;;;;;;;20.17;59.57;99040.50;7793257;32;39431;-77
2023/08/01 06:40:40;;;;;;;7.28;2.67;;;;;;;20.41;60.17;99039.56;7768657;32;39886;-77
2023/08/01 06:44:57;;;;;;;5.82;2.50;;;;;;;20.61;59.30;99032.16;7765142;32;38641;-77
2023/08/01 06:49:13;;;;;;;5.45;2.55;;;;;;;20.82;57.86;99028.34;7766091;32;37377;-77
2023/08/01 06:53:29;;;;;;;6.70;2.03;;;;;;;21.25;56.25;99026.56;7765972;32;39035;-77
2023/08/01 06:57:46;;;;;;;5.57;2.33;;;;;;;21.29;57.00;99021.09;7765760;32;39937;-77
2023/08/01 07:02:02;;;;;;;7.85;2.37;;;;;;;21.52;55.92;99023.97;7765794;32;38811;-77
2023/08/01 07:06:19;;;;;;;5.78;2.42;;;;;;;21.78;55.96;99003.91;7773921;32;37120;-77
2023/08/01 07:10:35;;;;;;;4.00;2.17;;;;;;;21.74;56.27;99003.84;7779917;32;40579;-78
2023/08/01 07:14:52;;;;;;;5.10;2.20;;;;;;;21.83;55.65;98991.72;7792615;32;40841;-76
2023/08/01 07:19:08;;;;;;;8.80;2.30;;;;;;;21.94;54.99;98989.97;7788878;32;37974;-68
2023/08/01 07:23:25;;;;;;;4.57;2.22;;;;;;;22.01;55.40;98986.50;7772360;32;37947;-67
2023/08/01 07:27:43;;;;;;;5.05;2.30;;;;;;;22.54;54.19;98985.88;7786004;32;40087;-68
2023/08/01 07:31:59;;;;;;;5.95;2.72;;;;;;;23.31;52.74;98973.53;7792241;32;40554;-67
2023/08/01 07:36:16;;;;;;;6.12;2.40;;;;;;;22.81;53.07;98968.03;7780756;32;38477;-68
2023/08/01 07:40:32;;;;;;;8.40;2.08;;;;;;;23.00;52.99;98961.56;7792424;32;37903;-68
2023/08/01 07:44:48;;;;;;;5.90;2.35;;;;;;;23.48;52.96;98963.00;7792240;32;40276;-68
2023/08/01 07:49:04;;;;;;;13.68;2.45;;;;;;;23.60;52.30;98960.78;7792355;32;39978;-67
2023/08/01 07:53:21;;;;;;;9.27;2.20;;;;;;;24.34;51.80;98947.22;7791049;32;38641;-67
2023/08/01 07:57:37;;;;;;;7.55;2.10;;;;;;;24.89;49.78;98932.53;7791282;32;36995;-66
2023/08/01 08:01:54;;;;;;;8.02;2.25;;;;;;;24.79;49.89;98927.69;7786762;32;167417;-67
2023/08/01 08:06:10;;;;;;;8.50;2.22;;;;;;;24.93;49.37;98928.53;7792164;32;40843;-67
2023/08/01 08:10:26;;;;;;;6.25;2.20;;;;;;;25.37;48.58;98926.81;7777537;32;37945;-68
2023/08/01 08:14:42;;;;;;;4.82;2.10;;;;;;;25.75;45.77;98927.31;7768461;32;38048;-68
2023/08/01 08:18:59;;;;;;;4.97;2.00;;;;;;;25.97;46.45;98917.00;7776588;32;40053;-68
2023/08/01 08:23:15;;;;;;;6.60;2.58;;;;;;;26.03;45.31;98909.03;7783088;32;39998;-67
2023/08/01 08:27:31;;;;;;;5.30;2.10;;;;;;;26.55;44.63;98917.81;7784951;32;37585;-67
2023/08/01 08:31:48;;;;;;;5.00;2.15;;;;;;;26.75;41.49;98920.19;7770543;32;37104;-67
2023/08/01 08:36:04;;;;;;;5.37;2.00;;;;;;;26.84;41.40;98922.56;7780985;32;39308;-67
2023/08/01 08:40:21;;;;;;;4.12;1.90;;;;;;;27.11;41.00;98908.91;7785113;32;40749;-66
2023/08/01 08:44:43;;;;;;;3.60;1.98;;;;;;;27.26;40.06;98904.84;7769281;32;38038;-66
2023/08/01 08:49:00;;;;;;;3.78;1.80;;;;;;;27.17;40.99;98907.28;7768348;32;37179;-66
2023/08/01 08:53:17;;;;;;;3.47;2.08;;;;;;;26.87;39.01;98914.19;7756588;32;40059;-66
2023/08/01 08:57:33;;;;;;;5.62;2.08;;;;;;;27.33;38.87;98902.03;7767506;32;40492;-66
2023/08/01 09:01:50;;;;;;;4.07;1.87;;;;;;;27.51;39.19;98893.56;7762501;32;38616;-67
2023/08/01 09:06:15;;;;;;;3.78;1.98;;;;;;;27.53;39.26;98879.97;7761175;32;37893;-66
2023/08/01 09:10:32;;;;;;;4.90;2.03;;;;;;;27.80;37.55;98875.78;7783766;32;37925;-66
2023/08/01 09:14:50;;;;;;;4.62;2.10;;;;;;;28.02;36.65;98882.84;7789012;32;40082;-67
2023/08/01 09:19:07;;;;;;;4.75;2.30;;;;;;;27.64;37.30;98879.87;7774293;32;38084;-67
2023/08/01 09:23:27;;;;;;;3.95;2.00;;;;;;;27.79;36.58;98865.81;7775496;32;37864;-66
2023/08/01 09:27:43;;;;;;;4.60;2.53;;;;;;;28.29;34.66;98868.22;7775081;32;40164;-65
2023/08/01 09:31:59;;;;;;;4.47;2.50;;;;;;;28.28;35.67;98852.63;7771923;32;39606;-66
2023/08/01 09:36:23;;;;;;;6.22;2.62;;;;;;;28.05;35.75;98847.63;7776315;32;37916;-67
2023/08/01 09:40:40;;;;;;;8.07;3.28;;;;;;;27.84;36.58;98843.75;7794072;32;37189;-67
2023/08/01 09:44:56;;;;;;;6.80;2.55;;;;;;;28.31;35.71;98842.59;7793962;32;39338;-66
2023/08/01 09:49:13;;;;;;;5.03;2.53;;;;;;;28.24;35.93;98843.47;7793658;32;40740;-66
2023/08/01 09:53:29;;;;;;;8.50;2.30;;;;;;;28.26;35.31;98830.62;7793753;32;37625;-73
2023/08/01 09:57:48;;;;;;;5.03;2.30;;;;;;;28.50;34.86;98822.38;7779817;32;37130;-79
2023/08/01 10:02:11;;;;;;;7.40;2.17;;;;;;;28.65;36.33;98814.66;7765351;32;39323;-78
2023/08/01 10:06:33;;;;;;;5.22;2.03;;;;;;;29.08;33.83;98808.50;7765348;32;40550;-78
2023/08/01 10:10:49;;;;;;;4.07;2.08;;;;;;;29.12;34.76;98806.44;7766277;32;37879;-78
2023/08/01 10:15:06;;;;;;;7.57;2.15;;;;;;;29.64;34.24;98802.50;7766294;32;36754;-79
2023/08/01 10:19:26;;;;;;;5.90;2.28;;;;;;;29.71;32.85;98802.38;7766232;32;40062;-78
2023/08/01 10:23:43;;;;;;;5.28;2.10;;;;;;;29.91;33.29;98796.09;7747587;32;40005;-78
2023/08/01 10:28:01;;;;;;;5.55;2.33;;;;;;;29.70;32.85;98798.00;7739011;32;38437;-78
2023/08/01 10:32:18;;;;;;;4.62;1.80;;;;;;;29.73;32.49;98779.47;7739050;32;36116;-78
2023/08/01 10:36:34;;;;;;;15.80;3.00;;;;;;;29.82;31.59;98779.78;7752419;32;40110;-77
2023/08/01 10:40:51;;;;;;;7.15;2.33;;;;;;;29.61;31.90;98775.25;7765966;32;38404;-79
2023/08/01 10:45:20;;;;;;;3.47;1.87;;;;;;;29.35;31.73;98765.66;7748067;32;38554;-79
2023/08/01 10:49:44;;;;;;;4.28;1.87;;;;;;;29.25;31.89;98764.56;7759530;32;37905;-79
2023/08/01 10:54:00;;;;;;;4.82;2.15;;;;;;;29.44;32.12;98768.69;7738961;32;39419;-78
2023/08/01 10:58:16;;;;;;;6.85;2.08;;;;;;;29.47;31.32;98759.44;7738661;32;40033;-77
2023/08/01 11:02:33;;;;;;;4.60;2.37;;;;;;;29.45;31.74;98759.06;7765850;32;38666;-78
2023/08/01 11:06:52;;;;;;;4.47;1.80;;;;;;;29.24;32.62;98759.41;7786876;32;37035;-79
2023/08/01 11:11:13;;;;;;;5.37;1.70;;;;;;;29.01;33.51;98760.88;7792645;32;39457;-78
2023/08/01 11:15:31;;;;;;;4.68;2.15;;;;;;;28.90;32.99;98760.25;7766866;32;41486;-78
2023/08/01 11:19:47;;;;;;;6.87;2.05;;;;;;;29.05;33.38;98747.62;7778574;32;38694;-78
2023/08/01 11:24:07;;;;;;;3.17;1.73;;;;;;;28.79;33.99;98757.59;7792763;32;36770;-80
2023/08/01 11:28:24;;;;;;;4.32;1.98;;;;;;;28.77;33.58;98751.59;7792553;32;39050;-80
2023/08/01 11:32:40;;;;;;;3.97;1.70;;;;;;;28.57;34.02;98749.44;7811932;32;40829;-70
2023/08/01 11:36:57;;;;;;;2.97;1.75;;;;;;;28.48;33.98;98744.31;7819706;32;37921;-71
2023/08/01 11:41:13;;;;;;;6.55;1.90;;;;;;;28.65;33.63;98733.34;7819889;32;37837;-71
2023/08/01 11:45:30;;;;;;;5.78;2.10;;;;;;;28.83;32.66;98721.88;7805758;32;40092;-71
2023/08/01 11:49:50;;;;;;;4.28;2.10;;;;;;;28.88;33.61;98710.19;7805563;32;39881;-79
2023/08/01 11:54:07;;;;;;;9.40;2.20;;;;;;;28.96;33.18;98703.25;7819413;32;37843;-79
2023/08/01 11:58:34;;;;;;;4.30;2.05;;;;;;;28.91;32.66;98700.94;7816654;32;36812;-79
2023/08/01 12:02:50;;;;;;;6.62;2.45;;;;;;;29.19;32.68;98704.56;7819720;32;39413;-79
2023/08/01 12:07:16;;;;;;;3.60;1.87;;;;;;;29.34;32.36;98693.91;7819542;32;39944;-79
2023/08/01 12:11:32;;;;;;;4.65;2.00;;;;;;;29.07;32.71;98691.88;7818616;32;37997;-79
2023/08/01 12:15:50;;;;;;;5.10;2.05;;;;;;;29.31;32.37;98684.31;7816440;32;37819;-80
2023/08/01 12:20:07;;;;;;;5.68;2.12;;;;;;;29.25;33.66;98676.78;7804522;32;39554;-79
2023/08/01 12:24:23;;;;;;;4.47;2.30;;;;;;;29.18;33.39;98674.87;7818315;32;40521;-79
2023/08/01 12:28:40;;;;;;;5.47;2.03;;;;;;;29.49;32.78;98672.78;7818870;32;38721;-80
2023/08/01 12:32:56;;;;;;;5.28;2.35;;;;;;;29.40;32.95;98669.72;7819196;32;37337;-79
2023/08/01 12:37:13;;;;;;;4.75;2.10;;;;;;;29.74;32.77;98657.50;7819087;32;39356;-79
2023/08/01 12:41:29;;;;;;;5.18;2.37;;;;;;;29.36;31.98;98652.94;7819121;32;39945;-80
2023/08/01 12:45:48;;;;;;;6.65;2.12;;;;;;;29.46;32.10;98647.56;7818930;32;37619;-80
2023/08/01 12:50:08;;;;;;;3.17;2.03;;;;;;;29.78;31.49;98644.22;7805427;32;37057;-80
2023/08/01 12:54:25;;;;;;;3.47;1.48;;;;;;;29.85;31.85;98632.84;7818831;32;40012;-79
2023/08/01 12:58:41;;;;;;;3.15;1.92;;;;;;;29.89;31.17;98625.16;7818493;32;40635;-80
2023/08/01 13:02:58;;;;;;;4.43;1.80;;;;;;;29.70;32.09;98645.53;7818629;32;37639;-79
2023/08/01 13:07:14;;;;;;;5.68;1.70;;;;;;;29.15;31.76;98631.63;7821668;32;37899;-80
2023/08/01 13:11:30;;;;;;;5.30;2.20;;;;;;;29.45;31.49;98624.31;7827460;32;39263;-79
2023/08/01 13:15:47;;;;;;;2.87;1.65;;;;;;;29.45;32.05;98621.53;7827327;32;39931;-80
2023/08/01 13:20:04;;;;;;;4.45;2.03;;;;;;;29.44;31.10;98619.13;7827150;32;37953;-80
2023/08/01 13:24:20;;;;;;;10.50;2.10;;;;;;;29.32;30.75;98603.69;7827190;32;37879;-79
2023/08/01 13:28:36;;;;;;;2.35;1.60;;;;;;;29.58;30.41;98597.22;7826773;32;40063;-79
2023/08/01 13:32:53;;;;;;;7.25;1.90;;;;;;;29.45;30.99;98593.44;7826549;32;39969;-79
2023/08/01 13:37:09;;;;;;;5.82;1.80;;;;;;;29.33;31.88;98582.84;7826433;32;38152;-79
2023/08/01 13:41:25;;;;;;;10.40;2.10;;;;;;;29.91;30.06;98580.56;7826816;32;36734;-79
2023/08/01 13:45:42;;;;;;;4.97;2.25;;;;;;;29.98;32.94;98564.75;7826639;32;39985;-79
2023/08/01 13:49:59;;;;;;;3.67;1.90;;;;;;;30.83;34.09;98555.66;7826501;32;40930;-79
2023/08/01 13:54:15;;;;;;;9.20;2.60;;;;;;;30.61;36.02;98556.16;7826338;32;38079;-79
2023/08/01 13:58:31;;;;;;;4.05;2.25;;;;;;;30.83;35.51;98561.28;7826181;32;38094;-79
2023/08/01 14:02:51;;;;;;;5.95;2.20;;;;;;;31.47;35.76;98555.25;7826375;32;39085;-79
2023/08/01 14:07:07;;;;;;;4.78;2.42;;;;;;;31.71;35.53;98565.06;7826063;32;40534;-79
2023/08/01 14:11:24;;;;;;;3.97;2.03;;;;;;;31.61;34.20;98566.94;7825977;32;37821;-79
2023/08/01 14:15:40;;;;;;;5.45;1.80;;;;;;;31.52;34.30;98555.53;7826044;32;37118;-79
2023/08/01 14:19:56;;;;;;;4.00;2.15;;;;;;;31.56;33.28;98544.97;7822119;32;39293;-79
2023/08/01 14:24:14;;;;;;;4.15;2.20;;;;;;;31.43;33.81;98555.34;7820809;32;39909;-79
2023/08/01 14:28:30;;;;;;;3.85;2.10;;;;;;;31.32;33.81;98555.66;7820837;32;37890;-79
2023/08/01 14:32:46;;;;;;;7.00;1.87;;;;;;;31.81;33.79;98549.09;7820646;32;37025;-80
2023/08/01 14:37:03;;;;;;;6.22;2.33;;;;;;;31.86;33.44;98540.09;7820500;32;40110;-80
2023/08/01 14:41:19;;;;;;;4.68;1.87;;;;;;;31.71;32.65;98542.53;7805142;32;39854;-80
2023/08/01 14:45:55;;;;;;;5.05;2.08;;;;;;;31.75;32.36;98536.78;7792578;32;38007;-80
2023/08/01 14:50:13;;;;;;;4.45;2.35;;;;;;;31.48;33.08;98539.94;7793035;32;37719;-80
2023/08/01 14:54:31;;;;;;;4.22;2.30;;;;;;;31.34;32.76;98535.47;7792998;32;40034;-79
2023/08/01 14:58:50;;;;;;;3.50;2.10;;;;;;;31.28;32.77;98532.41;7792801;32;40205;-80
2023/08/01 15:03:06;;;;;;;3.00;1.75;;;;;;;30.67;32.92;98550.81;7792886;32;38643;-80
2023/08/01 15:07:24;;;;;;;3.90;2.28;;;;;;;29.88;33.94;98553.31;7792841;32;37050;-79
2023/08/01 15:11:40;;;;;;;3.90;2.22;;;;;;;29.17;34.38;98567.47;7792783;32;40042;-79
2023/08/01 15:15:57;;;;;;;6.25;2.42;;;;;;;28.60;35.36;98576.81;7792718;32;39984;-79
2023/08/01 15:20:13;;;;;;;4.30;2.60;;;;;;;27.84;36.82;98604.97;7792483;32;37627;-78
2023/08/01 15:24:32;;;;;;;5.15;2.60;;;;;;;27.56;36.65;98590.03;7792644;32;38168;-79
2023/08/01 15:28:48;;;;;;;5.78;2.67;;;;;;;26.94;37.63;98598.19;7792690;32;40066;-79
2023/08/01 15:33:07;;;;;;;4.50;2.33;;;;;;;25.95;38.76;98606.69;7789394;32;40824;-77
2023/08/01 15:37:23;;;;;;;4.00;2.28;;;;;;;25.66;40.00;98631.06;7790115;32;37101;-82
2023/08/01 15:41:40;;;;;;;4.65;2.67;;;;;;;25.22;41.39;98647.03;7791816;32;37798;-78
2023/08/01 15:45:56;;;;;;;6.12;2.45;;;;;;;25.25;41.65;98665.78;7792003;32;40085;-78
2023/08/01 15:50:13;;;;;;;6.03;2.87;;;;;;;24.71;44.18;98699.09;7791849;32;40034;-78
2023/08/01 15:54:29;;;;;;;7.03;2.80;;;;;;;23.59;49.27;98725.50;7792072;32;38908;-78
2023/08/01 15:58:46;;;;;;;4.72;2.65;;;;;;;22.73;52.52;98723.84;7791222;32;36786;-77
2023/08/01 16:03:04;;;;;;;4.10;2.47;;;;;;;21.91;56.08;98724.34;7791816;32;39259;-78
2023/08/01 16:07:21;;;;;;;7.30;2.85;;;;;;;21.52;58.21;98732.84;7791810;32;39965;-78
2023/08/01 16:11:37;;;;;;;6.75;2.65;;;;;;;21.16;59.99;98744.09;7791410;32;39195;-78
2023/08/01 16:15:54;;;;;;;7.18;2.55;;;;;;;20.23;63.99;98759.63;7791540;32;37622;-78
2023/08/01 16:20:11;;;;;;;4.43;2.35;;;;;;;20.50;63.76;98776.38;7791736;32;39311;-78
2023/08/01 16:24:27;;;;;;;5.93;2.80;;;;;;;19.56;67.19;98792.78;7791724;32;40918;-78
2023/08/01 16:28:44;;;;;;;5.25;2.62;;;;;;;19.42;68.56;98801.50;7791078;32;37811;-78
2023/08/01 16:33:01;;;;;;;6.37;2.90;;;;;;;19.50;68.83;98810.75;7791571;32;37162;-78
2023/08/01 16:37:17;;;;;;;7.15;3.15;;;;;;;18.93;71.35;98823.84;7791172;32;39095;-77
2023/08/01 16:41:34;;;;;;;5.25;2.65;;;;;;;19.48;69.61;98819.41;7790751;32;40037;-78
2023/08/01 16:45:51;;;;;;;5.75;2.30;;;;;;;18.97;71.37;98819.19;7791396;32;37837;-77
2023/08/01 16:50:18;;;;;;;4.62;2.60;;;;;;;19.09;70.62;98821.94;7791011;32;37206;-77
2023/08/01 16:54:34;;;;;;;7.75;2.50;;;;;;;18.67;72.18;98816.75;7791149;32;39391;-77
2023/08/01 16:58:52;;;;;;;7.70;2.62;;;;;;;18.89;71.21;98811.91;7790835;32;41035;-78
2023/08/01 17:03:12;;;;;;;5.87;2.55;;;;;;;19.02;70.97;98805.16;7790847;32;37535;-78
2023/08/01 17:07:28;;;;;;;6.37;2.45;;;;;;;18.72;72.48;98808.22;7790657;32;37149;-78
2023/08/01 17:11:45;;;;;;;4.62;2.35;;;;;;;18.63;72.44;98809.53;7790572;32;39292;-79
2023/08/01 17:16:01;;;;;;;4.30;2.00;;;;;;;18.18;74.39;98814.91;7766932;32;39996;-78
2023/08/01 17:20:18;;;;;;;5.15;2.45;;;;;;;18.08;74.36;98823.66;7765776;32;37871;-79
2023/08/01 17:24:34;;;;;;;3.55;1.98;;;;;;;18.26;72.92;98821.44;7777143;32;37083;-79
2023/08/01 17:28:51;;;;;;;3.47;1.85;;;;;;;18.52;72.62;98818.31;7790182;32;39310;-78
2023/08/01 17:33:07;;;;;;;3.22;2.08;;;;;;;18.35;73.03;98816.62;7790205;32;40707;-78
2023/08/01 17:37:25;;;;;;;6.82;2.20;;;;;;;18.55;72.36;98805.75;7790032;32;38040;-80
2023/08/01 17:41:42;;;;;;;3.83;1.85;;;;;;;18.29;73.77;98801.44;7783224;32;36737;-80
2023/08/01 17:45:59;;;;;;;5.75;2.20;;;;;;;18.17;73.34;98805.00;7770724;32;39300;-81
2023/08/01 17:50:15;;;;;;;8.52;2.40;;;;;;;17.91;75.96;98815.59;7768326;32;40868;-80
2023/08/01 17:54:32;;;;;;;4.50;2.00;;;;;;;18.56;73.44;98815.66;7789935;32;37817;-79
2023/08/01 17:58:48;;;;;;;3.45;1.90;;;;;;;18.38;73.46;98831.66;7793139;32;37930;-79
2023/08/01 18:03:04;;;;;;;4.75;1.92;;;;;;;18.33;74.34;98837.41;7785319;32;39298;-79
2023/08/01 18:07:21;;;;;;;3.55;2.03;;;;;;;18.52;72.80;98812.78;7793321;32;41788;-79
2023/08/01 18:11:37;;;;;;;4.07;1.80;;;;;;;18.74;71.95;98780.28;7793496;32;38679;-78
2023/08/01 18:15:54;;;;;;;5.32;2.03;;;;;;;18.97;69.72;98810.13;7779708;32;37166;-78
2023/08/01 18:20:10;;;;;;;4.90;1.80;;;;;;;19.10;70.16;98817.22;7779704;32;40132;-79
2023/08/01 18:24:27;;;;;;;3.72;1.65;;;;;;;18.76;70.71;98813.84;7776004;32;40716;-80
2023/08/01 18:28:43;;;;;;;2.58;1.50;;;;;;;18.48;71.60;98813.81;7753097;32;37937;-81
2023/08/01 18:32:59;;;;;;;5.72;1.90;;;;;;;18.30;72.32;98838.91;7766244;32;36993;-81
2023/08/01 18:37:16;;;;;;;4.05;1.80;;;;;;;18.48;72.25;98842.22;7766206;32;39835;-81
2023/08/01 18:41:33;;;;;;;5.53;2.10;;;;;;;18.90;70.52;98864.00;7766128;32;40041;-81
2023/08/01 18:45:54;;;;;;;2.55;1.50;;;;;;;18.51;71.49;98882.13;7766820;32;37865;-82
2023/08/01 18:50:10;;;;;;;4.05;1.85;;;;;;;18.20;72.76;98880.75;7766424;32;37174;-81
2023/08/01 18:54:26;;;;;;;3.45;2.00;;;;;;;18.32;72.03;98886.28;7789983;32;39204;-79
2023/08/01 18:58:43;;;;;;;4.10;2.05;;;;;;;18.16;72.23;98857.75;7792738;32;39933;-80
2023/08/01 19:03:00;;;;;;;2.92;1.98;;;;;;;18.52;71.07;98859.72;7785293;32;37618;-81
2023/08/01 19:07:16;;;;;;;3.05;1.77;;;;;;;18.65;70.67;98846.66;7765641;32;38013;-80
2023/08/01 19:11:32;;;;;;;3.20;1.95;;;;;;;18.46;70.65;98854.75;7765744;32;39265;-81
2023/08/01 19:15:49;;;;;;;4.97;1.90;;;;;;;18.98;68.93;98837.41;7765665;32;39921;-81
2023/08/01 19:20:07;;;;;;;3.90;1.80;;;;;;;19.17;68.17;98839.50;7765490;32;37978;-81
2023/08/01 19:24:23;;;;;;;3.22;1.80;;;;;;;19.18;68.52;98824.53;7765808;32;38675;-80
2023/08/01 19:28:40;;;;;;;5.12;1.75;;;;;;;19.39;67.81;98818.78;7774379;32;39010;-81
2023/08/01 19:32:56;;;;;;;4.50;1.90;;;;;;;19.48;67.37;98802.81;7792539;32;39889;-81
2023/08/01 19:37:13;;;;;;;4.43;1.85;;;;;;;19.42;67.71;98793.22;7792775;32;38041;-81
2023/08/01 19:41:29;;;;;;;2.87;1.80;;;;;;;19.46;67.94;98779.47;7790917;32;38059;-81
2023/08/01 19:45:45;;;;;;;4.40;1.80;;;;;;;19.56;67.38;98772.59;7792542;32;38999;-80
2023/08/01 19:50:05;;;;;;;4.20;1.98;;;;;;;19.64;67.15;98771.63;7781816;32;40822;-80
2023/08/01 19:54:21;;;;;;;3.67;1.85;;;;;;;19.70;66.92;98761.91;7765191;32;38478;-81
2023/08/01 19:58:38;;;;;;;5.03;1.92;;;;;;;19.46;67.52;98752.63;7764975;32;36826;-81
2023/08/01 20:02:56;;;;;;;3.78;1.92;;;;;;;19.60;67.29;98756.91;7788525;32;40203;-81
2023/08/01 20:07:13;;;;;;;6.82;2.20;;;;;;;19.81;67.15;98756.66;7792449;32;39848;-80
2023/08/01 20:11:29;;;;;;;5.82;2.25;;;;;;;19.87;67.05;98760.78;7782066;32;37886;-80